LFPG/CDG METAR and TAF weather

Enter ICAO airport designator
Station Type Date Time Source
LFPG METAR 2021/04/18 02:00 UTC NOAA

LFPG 180200Z 36009KT CAVOK 03/M00 Q1023 NOSIG


Station Type Date Time Source
LFPG Decoded METAR 2021/04/18 02:00 UTC NOAA

Paris-Aeroport Charles De Gaulle, France (LFPG) 49-01N 002-32E 109M
Apr 17, 2021 - 10:00 PM EDT / 2021.04.18 0200 UTC
Wind: from the N (360 degrees) at 10 MPH (9 KT):0
Visibility: greater than 7 mile(s):0
Temperature: 37 F (3 C)
Dew Point: 32 F (0 C)
Relative Humidity: 80%
Pressure (altimeter): 30.21 in. Hg (1023 hPa)
ob: LFPG 180200Z 36009KT CAVOK 03/M00 Q1023 NOSIG
cycle: 2

Station Type Date Time Source
LFPG TAF 2021/04/18 00:15 UTC NOAA

TAF
AMD LFPG 180000Z 1800/1906 03012KT CAVOK TX14/1815Z TN02/1805Z PROB30
TEMPO 1904/1906 4000 BR

Example: see airport list